createdAt,value
2019-03-06T00:00:23.335Z,100255.83
2019-03-06T00:02:51.353Z,100243.56
2019-03-06T00:05:17.714Z,100234.79
2019-03-06T00:07:43.922Z,100235.47
2019-03-06T00:10:30.143Z,100237.83
2019-03-06T00:12:56.452Z,100237.41
2019-03-06T00:15:23.914Z,100224.95
2019-03-06T00:17:50.247Z,100223.25
2019-03-06T00:20:16.868Z,100223.06
2019-03-06T00:22:43.170Z,100218.24
2019-03-06T00:25:09.594Z,100216.49
2019-03-06T00:27:35.815Z,100212.55
2019-03-06T00:30:05.135Z,100217.37
2019-03-06T00:32:31.366Z,100214.38
2019-03-06T00:34:59.735Z,100218.44
2019-03-06T00:37:25.835Z,100209.75
2019-03-06T00:39:53.961Z,100212.33
2019-03-06T00:42:20.279Z,100214.57
2019-03-06T00:44:46.526Z,100217.66
2019-03-06T00:47:12.722Z,100218.89
2019-03-06T00:49:40.094Z,100215.27
2019-03-06T00:52:06.328Z,100214.81
2019-03-06T00:54:32.562Z,100211.59
2019-03-06T00:56:58.750Z,100207.74
2019-03-06T00:59:30.983Z,100212.32
2019-03-06T01:01:57.287Z,100212.05
2019-03-06T01:04:23.519Z,100213.20
2019-03-06T01:06:49.812Z,100220.42
2019-03-06T01:09:15.946Z,100218.81
2019-03-06T01:11:42.171Z,100218.26
2019-03-06T01:14:10.884Z,100210.27
2019-03-06T01:16:37.327Z,100218.72
2019-03-06T01:19:06.106Z,100211.00
2019-03-06T01:21:32.197Z,100209.21
2019-03-06T01:23:58.390Z,100204.23
2019-03-06T01:26:24.616Z,100194.88
2019-03-06T01:28:50.820Z,100191.78
2019-03-06T01:31:17.385Z,100195.95
2019-03-06T01:33:45.520Z,100190.80
2019-03-06T01:36:16.253Z,100187.59
2019-03-06T01:39:01.227Z,100187.55
2019-03-06T01:41:31.346Z,100183.55
2019-03-06T01:44:02.311Z,100181.30
2019-03-06T01:46:28.446Z,100180.02
2019-03-06T01:48:54.687Z,100172.29
2019-03-06T01:51:20.905Z,100169.85
2019-03-06T01:53:47.111Z,100157.94
2019-03-06T01:56:13.420Z,100161.94
2019-03-06T01:58:39.578Z,100154.02
2019-03-06T02:01:05.861Z,100163.52
2019-03-06T02:03:32.167Z,100161.91
2019-03-06T02:05:58.375Z,100156.39
2019-03-06T02:08:24.602Z,100154.64
2019-03-06T02:10:51.009Z,100156.39
2019-03-06T02:13:20.918Z,100156.15
2019-03-06T02:15:47.027Z,100147.89
2019-03-06T02:18:13.103Z,100143.88
2019-03-06T02:20:39.351Z,100135.95
2019-03-06T02:23:05.637Z,100131.42
2019-03-06T02:25:31.845Z,100135.75
2019-03-06T02:27:58.086Z,100129.09
2019-03-06T02:30:24.842Z,100125.98
2019-03-06T02:32:51.185Z,100121.50
2019-03-06T02:35:17.485Z,100121.78
2019-03-06T02:37:43.841Z,100115.13
2019-03-06T02:40:11.424Z,100115.59
2019-03-06T02:42:37.633Z,100112.27
2019-03-06T02:45:07.553Z,100104.61
2019-03-06T02:47:33.908Z,100103.11
2019-03-06T02:50:00.165Z,100097.03
2019-03-06T02:52:26.527Z,100100.16
2019-03-06T02:54:53.076Z,100097.53
2019-03-06T02:57:19.283Z,100096.58
2019-03-06T02:59:47.301Z,100087.44
2019-03-06T03:02:15.441Z,100086.48
2019-03-06T03:04:46.235Z,100078.41
2019-03-06T03:07:12.619Z,100072.62
2019-03-06T03:09:38.745Z,100072.45
2019-03-06T03:12:05.066Z,100074.34
2019-03-06T03:14:31.373Z,100072.72
2019-03-06T03:16:57.598Z,100066.62
2019-03-06T03:19:24.890Z,100061.58
2019-03-06T03:21:51.024Z,100060.06
2019-03-06T03:24:17.476Z,100060.14
2019-03-06T03:26:43.697Z,100057.53
2019-03-06T03:29:09.807Z,100056.81
2019-03-06T03:31:35.901Z,100049.91
2019-03-06T03:34:02.134Z,100053.89
2019-03-06T03:36:28.306Z,100044.94
2019-03-06T03:38:54.639Z,100035.16
2019-03-06T03:41:21.026Z,100028.41
2019-03-06T03:43:47.327Z,100025.06
2019-03-06T03:46:13.444Z,100026.99
2019-03-06T03:48:39.560Z,100025.66
2019-03-06T03:51:05.752Z,100024.83
2019-03-06T03:53:31.959Z,100021.91
2019-03-06T03:55:58.187Z,100021.91
2019-03-06T03:58:24.619Z,100017.69
2019-03-06T04:00:50.726Z,100021.91
2019-03-06T04:03:16.899Z,100017.69
2019-03-06T04:05:44.151Z,100008.28
2019-03-06T04:08:10.315Z,100013.44
2019-03-06T04:10:36.897Z,100010.06
2019-03-06T04:13:03.497Z,100002.06
2019-03-06T04:15:30.809Z,100008.17
2019-03-06T04:17:57.059Z,99998.58
2019-03-06T04:20:23.254Z,99990.46
2019-03-06T04:22:49.505Z,99992.77
2019-03-06T04:25:15.602Z,99985.30
2019-03-06T04:27:41.908Z,99986.13
2019-03-06T04:30:12.918Z,99991.30
2019-03-06T04:32:39.279Z,99987.20
2019-03-06T04:35:06.086Z,99987.20
2019-03-06T04:37:32.231Z,99987.55
2019-03-06T04:39:58.332Z,99986.72
2019-03-06T04:42:24.556Z,99978.17
2019-03-06T04:44:50.653Z,99973.13
2019-03-06T04:47:16.750Z,99976.89
2019-03-06T04:49:52.205Z,99972.30
2019-03-06T04:52:11.003Z,99970.89
2019-03-06T04:54:37.224Z,99964.20
2019-03-06T04:57:03.300Z,99965.73
2019-03-06T04:59:29.527Z,99971.49
2019-03-06T05:01:56.939Z,99966.33
2019-03-06T05:04:23.102Z,99965.50
2019-03-06T05:06:49.233Z,99956.47
2019-03-06T05:09:15.505Z,99954.83
2019-03-06T05:11:41.844Z,99954.00
2019-03-06T05:14:08.248Z,99945.08
2019-03-06T05:16:51.321Z,99939.56
2019-03-06T05:19:17.529Z,99935.25
2019-03-06T05:21:43.646Z,99925.73
2019-03-06T05:24:09.810Z,99931.06
2019-03-06T05:26:36.272Z,99917.95
2019-03-06T05:29:02.469Z,99906.87
2019-03-06T05:31:29.739Z,99910.39
2019-03-06T05:33:55.855Z,99905.61
2019-03-06T05:36:35.062Z,99899.16
2019-03-06T05:39:03.639Z,99905.23
2019-03-06T05:41:31.766Z,99900.17
2019-03-06T05:43:57.929Z,99901.81
2019-03-06T05:46:24.177Z,99898.88
2019-03-06T05:48:50.411Z,99894.14
2019-03-06T05:51:16.497Z,99890.83
2019-03-06T05:53:42.722Z,99892.19
2019-03-06T05:56:08.958Z,99891.83
2019-03-06T05:58:35.157Z,99891.09
2019-03-06T06:01:01.489Z,99885.59
2019-03-06T06:03:27.584Z,99891.34
2019-03-06T06:05:53.707Z,99885.02
2019-03-06T06:08:19.809Z,99880.38
2019-03-06T06:10:45.894Z,99871.09
2019-03-06T06:13:12.210Z,99863.83
2019-03-06T06:15:38.333Z,99866.09
2019-03-06T06:18:04.443Z,99862.31
2019-03-06T06:20:30.652Z,99862.02
2019-03-06T06:23:10.928Z,99869.67
2019-03-06T06:25:37.247Z,99861.09
2019-03-06T06:28:03.531Z,99853.15
2019-03-06T06:30:30.093Z,99849.21
2019-03-06T06:32:56.202Z,99843.02
2019-03-06T06:35:23.533Z,99834.55
2019-03-06T06:37:49.675Z,99831.55
2019-03-06T06:40:15.772Z,99825.55
2019-03-06T06:42:41.978Z,99821.86
2019-03-06T06:45:10.267Z,99825.95
2019-03-06T06:47:56.865Z,99819.94
2019-03-06T06:50:23.157Z,99810.63
2019-03-06T06:53:18.856Z,99816.73
2019-03-06T06:55:48.857Z,99815.44
2019-03-06T06:58:45.868Z,99817.30
2019-03-06T07:01:26.579Z,99816.04
2019-03-06T07:04:22.492Z,99808.35
2019-03-06T07:06:56.498Z,99798.05
2019-03-06T07:09:24.583Z,99800.33
2019-03-06T07:11:58.720Z,99798.19
2019-03-06T07:14:26.969Z,99791.45
2019-03-06T07:16:55.103Z,99798.48
2019-03-06T07:19:32.447Z,99794.33
2019-03-06T07:22:00.727Z,99793.69
2019-03-06T07:24:28.814Z,99785.75
2019-03-06T07:27:13.682Z,99785.47
2019-03-06T07:29:44.506Z,99777.88
2019-03-06T07:32:30.600Z,99777.17
2019-03-06T07:35:42.187Z,99788.10
2019-03-06T07:38:09.101Z,99785.73
2019-03-06T07:40:37.778Z,99776.90
2019-03-06T07:43:14.479Z,99770.98
2019-03-06T07:45:48.483Z,99769.80
2019-03-06T07:48:28.816Z,99776.53
2019-03-06T07:50:59.579Z,99761.27
2019-03-06T07:53:45.591Z,99762.70
2019-03-06T07:56:13.615Z,99759.82
2019-03-06T07:58:53.378Z,99751.38
2019-03-06T08:01:21.508Z,99756.03
2019-03-06T08:03:51.009Z,99751.77
2019-03-06T08:06:17.185Z,99752.66
2019-03-06T08:08:43.415Z,99747.72
2019-03-06T08:11:11.469Z,99750.07
2019-03-06T08:13:39.536Z,99744.14
2019-03-06T08:16:07.789Z,99733.53
2019-03-06T08:18:38.841Z,99727.19
2019-03-06T08:21:18.720Z,99723.14
2019-03-06T08:23:46.882Z,99717.58
2019-03-06T08:26:13.258Z,99713.39
2019-03-06T08:28:39.601Z,99718.25
2019-03-06T08:31:07.939Z,99718.80
2019-03-06T08:33:34.193Z,99713.77
2019-03-06T08:36:00.621Z,99714.42
2019-03-06T08:38:26.899Z,99702.09
2019-03-06T08:40:53.214Z,99696.11
2019-03-06T08:43:19.536Z,99696.31
2019-03-06T08:45:48.081Z,99685.60
2019-03-06T08:48:26.140Z,99691.09
2019-03-06T08:51:06.347Z,99680.70
2019-03-06T08:53:49.658Z,99682.05
2019-03-06T08:56:29.989Z,99673.11
2019-03-06T08:59:01.012Z,99669.31
2019-03-06T09:01:32.128Z,99669.61
2019-03-06T09:04:00.199Z,99667.63
2019-03-06T09:06:30.947Z,99663.73
2019-03-06T09:09:07.943Z,99662.09
2019-03-06T09:11:45.814Z,99652.73
2019-03-06T09:14:15.140Z,99645.45
2019-03-06T09:16:49.053Z,99646.00
2019-03-06T09:19:33.649Z,99633.06
2019-03-06T09:22:11.066Z,99636.20
2019-03-06T09:24:55.879Z,99634.94
2019-03-06T09:27:26.878Z,99624.55
2019-03-06T09:29:57.965Z,99625.92
2019-03-06T09:32:28.913Z,99619.64
2019-03-06T09:35:12.296Z,99618.41
2019-03-06T09:37:57.295Z,99611.02
2019-03-06T09:40:34.276Z,99605.89
2019-03-06T09:43:05.280Z,99597.75
2019-03-06T09:45:39.098Z,99591.25
2019-03-06T09:48:13.210Z,99594.38
2019-03-06T09:50:44.376Z,99585.25
2019-03-06T09:53:12.520Z,99581.78
2019-03-06T09:55:56.062Z,99578.47
2019-03-06T09:58:24.172Z,99582.03
2019-03-06T10:01:07.220Z,99574.87
2019-03-06T10:03:38.302Z,99565.97
2019-03-06T10:06:09.341Z,99551.58
2019-03-06T10:08:49.749Z,99553.90
2019-03-06T10:11:26.827Z,99552.36
2019-03-06T10:14:10.254Z,99542.31
2019-03-06T10:16:38.363Z,99539.31
2019-03-06T10:19:15.669Z,99533.69
2019-03-06T10:21:41.861Z,99542.41
2019-03-06T10:24:09.280Z,99538.98
2019-03-06T10:26:35.591Z,99539.83
2019-03-06T10:29:01.893Z,99529.87
2019-03-06T10:31:28.204Z,99519.92
2019-03-06T10:33:54.483Z,99526.91
2019-03-06T10:36:20.679Z,99505.14
2019-03-06T10:38:47.009Z,99502.56
2019-03-06T10:41:13.781Z,99495.22
2019-03-06T10:43:48.666Z,99483.48
2019-03-06T10:46:08.051Z,99483.53
2019-03-06T10:48:34.577Z,99470.48
2019-03-06T10:51:01.047Z,99464.39
2019-03-06T10:53:27.352Z,99465.30
2019-03-06T10:55:53.660Z,99460.52
2019-03-06T10:58:19.953Z,99453.56
2019-03-06T11:00:50.961Z,99454.44
2019-03-06T11:03:17.690Z,99464.44
2019-03-06T11:05:44.203Z,99437.44
2019-03-06T11:08:11.294Z,99432.64
2019-03-06T11:10:37.643Z,99441.79
2019-03-06T11:13:08.572Z,99446.08
2019-03-06T11:15:35.160Z,99434.23
2019-03-06T11:18:01.490Z,99421.52
2019-03-06T11:20:31.416Z,99417.08
2019-03-06T11:22:59.894Z,99412.64
2019-03-06T11:25:27.343Z,99408.34
2019-03-06T11:27:53.806Z,99399.09
2019-03-06T11:30:29.790Z,99395.20
2019-03-06T11:32:56.101Z,99384.77
2019-03-06T11:35:22.944Z,99375.16
2019-03-06T11:37:49.478Z,99367.98
2019-03-06T11:40:16.408Z,99371.29
2019-03-06T11:42:43.015Z,99371.22
2019-03-06T11:45:15.603Z,99360.06
2019-03-06T11:47:42.105Z,99376.72
2019-03-06T11:50:09.870Z,99387.66
2019-03-06T11:52:36.301Z,99387.66
2019-03-06T11:55:07.660Z,99378.03
2019-03-06T11:57:34.693Z,99380.10
2019-03-06T12:00:19.781Z,99380.10
2019-03-06T12:02:46.630Z,99346.49
2019-03-06T12:05:12.951Z,99326.79
2019-03-06T12:07:39.248Z,99326.79
2019-03-06T12:10:08.116Z,99329.48
2019-03-06T12:12:34.861Z,99317.42
2019-03-06T12:15:01.184Z,99317.42
2019-03-06T12:17:27.313Z,99314.91
2019-03-06T12:19:53.601Z,99322.69
2019-03-06T12:22:20.898Z,99303.93
2019-03-06T12:24:47.223Z,99306.99
2019-03-06T12:27:13.493Z,99306.06
2019-03-06T12:29:40.850Z,99285.88
2019-03-06T12:32:07.485Z,99285.88
2019-03-06T12:34:33.833Z,99277.02
2019-03-06T12:37:00.080Z,99274.89
2019-03-06T12:39:26.260Z,99271.94
2019-03-06T12:41:52.532Z,99262.41
2019-03-06T12:44:18.958Z,99262.41
2019-03-06T12:46:45.370Z,99257.50
2019-03-06T12:49:11.887Z,99265.69
2019-03-06T12:51:38.242Z,99255.86
2019-03-06T12:54:04.746Z,99254.13
2019-03-06T12:56:31.051Z,99260.19
2019-03-06T12:58:57.271Z,99257.25
2019-03-06T13:01:23.618Z,99248.03
2019-03-06T13:03:49.763Z,99237.83
2019-03-06T13:06:24.066Z,99226.66
2019-03-06T13:08:50.373Z,99216.69
2019-03-06T13:11:12.994Z,99212.72
2019-03-06T13:13:39.250Z,99197.06
2019-03-06T13:16:05.551Z,99197.06
2019-03-06T13:18:31.828Z,99198.28
2019-03-06T13:20:58.166Z,99187.38
2019-03-06T13:23:24.588Z,99187.38
2019-03-06T13:25:50.809Z,99177.89
2019-03-06T13:28:17.148Z,99168.28
2019-03-06T13:30:43.486Z,99168.28
2019-03-06T13:33:13.696Z,99177.03
2019-03-06T13:35:41.095Z,99177.93
2019-03-06T13:38:07.406Z,99173.92
2019-03-06T13:40:33.743Z,99163.05
2019-03-06T13:43:00.360Z,99156.91
2019-03-06T13:45:26.808Z,99155.11
2019-03-06T13:47:53.025Z,99155.11
2019-03-06T13:50:20.077Z,99146.36
2019-03-06T13:52:46.479Z,99150.69
2019-03-06T13:55:14.053Z,99145.00
2019-03-06T13:57:40.687Z,99132.86
2019-03-06T14:00:21.001Z,99132.86
2019-03-06T14:02:48.153Z,99120.27
2019-03-06T14:05:15.577Z,99115.91
2019-03-06T14:07:42.027Z,99113.38
2019-03-06T14:10:09.235Z,99113.38
2019-03-06T14:12:35.490Z,99123.80
2019-03-06T14:15:03.639Z,99119.47
2019-03-06T14:17:30.251Z,99124.79
2019-03-06T14:19:56.596Z,99124.79
2019-03-06T14:22:22.940Z,99119.69
2019-03-06T14:24:49.352Z,99119.23
2019-03-06T14:27:15.805Z,99106.63
2019-03-06T14:29:42.060Z,99121.91
2019-03-06T14:32:14.683Z,99115.37
2019-03-06T14:34:37.939Z,99111.08
2019-03-06T14:37:04.553Z,99103.27
2019-03-06T14:39:30.771Z,99111.61
2019-03-06T14:41:57.513Z,99094.12
2019-03-06T14:44:24.736Z,99091.06
2019-03-06T14:46:51.101Z,99081.45
2019-03-06T14:49:17.354Z,99069.27
2019-03-06T14:51:43.714Z,99072.80
2019-03-06T14:54:10.180Z,99072.84
2019-03-06T14:56:36.494Z,99072.84
2019-03-06T14:59:02.851Z,99068.51
2019-03-06T15:01:28.956Z,99067.65
2019-03-06T15:03:55.236Z,99045.14
2019-03-06T15:06:21.343Z,99045.14
2019-03-06T15:08:47.673Z,99044.33
2019-03-06T15:11:13.902Z,99043.09
2019-03-06T15:13:41.434Z,99038.32
2019-03-06T15:16:08.830Z,99037.05
2019-03-06T15:18:35.206Z,99044.48
2019-03-06T15:21:01.567Z,99037.54
2019-03-06T15:23:27.937Z,99037.61
2019-03-06T15:25:54.200Z,99040.64
2019-03-06T15:28:20.365Z,99053.28
2019-03-06T15:30:46.708Z,99047.65
2019-03-06T15:33:13.057Z,99051.53
2019-03-06T15:35:39.377Z,99059.33
2019-03-06T15:38:06.621Z,99073.22
2019-03-06T15:40:35.050Z,99074.01
2019-03-06T15:43:01.344Z,99084.88
2019-03-06T15:45:29.596Z,99069.60
2019-03-06T15:47:56.148Z,99072.18
2019-03-06T15:50:22.713Z,99089.50
2019-03-06T15:52:49.507Z,99089.50
2019-03-06T15:55:25.530Z,99086.40
2019-03-06T15:57:52.231Z,99088.11
2019-03-06T16:00:32.553Z,99075.69
2019-03-06T16:02:58.889Z,99085.94
2019-03-06T16:05:25.220Z,99092.54
2019-03-06T16:07:51.509Z,99080.43
2019-03-06T16:10:17.930Z,99081.77
2019-03-06T16:12:46.180Z,99085.21
2019-03-06T16:15:13.135Z,99078.71
2019-03-06T16:17:39.675Z,99070.61
2019-03-06T16:20:12.642Z,99058.08
2019-03-06T16:22:39.097Z,99043.80
2019-03-06T16:25:06.187Z,99029.88
2019-03-06T16:27:32.644Z,99029.42
2019-03-06T16:29:58.989Z,99019.43
2019-03-06T16:32:25.795Z,99019.76
2019-03-06T16:34:54.665Z,99016.34
2019-03-06T16:37:21.020Z,99017.56
2019-03-06T16:39:47.310Z,99023.26
2019-03-06T16:42:15.618Z,99018.93
2019-03-06T16:44:41.962Z,99016.27
2019-03-06T16:47:08.285Z,99017.09
2019-03-06T16:49:36.920Z,99005.75
2019-03-06T16:52:06.190Z,99003.97
2019-03-06T16:54:32.563Z,99004.77
2019-03-06T16:56:59.080Z,98995.69
2019-03-06T16:59:25.419Z,98998.30
2019-03-06T17:01:51.848Z,98991.73
2019-03-06T17:04:18.190Z,98991.80
2019-03-06T17:06:44.783Z,98994.38
2019-03-06T17:09:11.283Z,98991.22
2019-03-06T17:11:38.294Z,98984.62
2019-03-06T17:14:07.895Z,98984.66
2019-03-06T17:16:34.304Z,98996.00
2019-03-06T17:21:39.718Z,98983.05
2019-03-06T17:24:06.159Z,98981.33
2019-03-06T17:26:32.608Z,98984.35
2019-03-06T17:29:06.816Z,98987.37
2019-03-06T17:31:45.405Z,98987.37
2019-03-06T17:34:12.141Z,98976.07
2019-03-06T17:36:43.666Z,98977.00
2019-03-06T17:39:16.993Z,98977.86
2019-03-06T17:41:43.331Z,98980.36
2019-03-06T17:44:11.149Z,98979.91
2019-03-06T17:46:37.653Z,98974.66
2019-03-06T17:49:06.310Z,98966.07
2019-03-06T17:51:35.529Z,98971.78
2019-03-06T17:54:09.341Z,98967.30
2019-03-06T17:56:35.910Z,98964.39
2019-03-06T17:59:08.567Z,98966.17
2019-03-06T18:01:34.952Z,98968.38
2019-03-06T18:04:06.816Z,98962.36
2019-03-06T18:06:33.275Z,98966.76
2019-03-06T18:08:59.580Z,98970.25
2019-03-06T18:11:25.883Z,98971.09
2019-03-06T18:13:52.280Z,98975.00
2019-03-06T18:16:26.903Z,98968.03
2019-03-06T18:18:53.440Z,98972.39
2019-03-06T18:21:24.569Z,98970.61
2019-03-06T18:23:50.897Z,98966.69
2019-03-06T18:26:17.319Z,98968.75
2019-03-06T18:28:43.830Z,98958.27
2019-03-06T18:31:10.297Z,98955.66
2019-03-06T18:33:36.814Z,98960.37
2019-03-06T18:36:04.859Z,98948.17
2019-03-06T18:38:36.579Z,98953.35
2019-03-06T18:41:08.522Z,98958.65
2019-03-06T18:43:35.159Z,98938.62
2019-03-06T18:46:06.181Z,98940.78
2019-03-06T18:48:32.527Z,98937.23
2019-03-06T18:50:59.002Z,98942.91
2019-03-06T18:53:25.453Z,98935.59
2019-03-06T18:55:51.911Z,98941.34
2019-03-06T18:58:18.318Z,98954.36
2019-03-06T19:00:45.687Z,98936.94
2019-03-06T19:03:12.002Z,98932.91
2019-03-06T19:05:38.469Z,98932.91
2019-03-06T19:08:05.029Z,98925.60
2019-03-06T19:10:32.073Z,98929.11
2019-03-06T19:12:58.644Z,98916.94
2019-03-06T19:15:26.262Z,98920.34
2019-03-06T19:17:52.744Z,98915.16
2019-03-06T19:20:20.107Z,98914.78
2019-03-06T19:22:47.402Z,98917.88
2019-03-06T19:25:14.438Z,98911.91
2019-03-06T19:27:40.898Z,98913.18
2019-03-06T19:30:21.951Z,98914.97
2019-03-06T19:32:49.499Z,98913.25
2019-03-06T19:35:16.799Z,98902.36
2019-03-06T19:37:43.060Z,98897.63
2019-03-06T19:40:11.552Z,98902.02
2019-03-06T19:42:38.062Z,98892.09
2019-03-06T19:45:10.450Z,98901.61
2019-03-06T19:47:36.907Z,98892.55
2019-03-06T19:50:09.867Z,98893.05
2019-03-06T19:52:36.350Z,98882.27
2019-03-06T19:55:04.261Z,98881.91
2019-03-06T19:57:43.439Z,98879.36
2019-03-06T20:00:10.061Z,98878.47
2019-03-06T20:02:36.596Z,98875.89
2019-03-06T20:05:04.256Z,98871.56
2019-03-06T20:07:30.711Z,98870.20
2019-03-06T20:09:56.945Z,98871.51
2019-03-06T20:12:23.224Z,98872.84
2019-03-06T20:14:49.747Z,98870.77
2019-03-06T20:17:16.199Z,98875.97
2019-03-06T20:19:42.564Z,98869.45
2019-03-06T20:22:09.009Z,98868.16
2019-03-06T20:24:35.607Z,98862.47
2019-03-06T20:27:02.317Z,98856.34
2019-03-06T20:29:28.888Z,98849.79
2019-03-06T20:31:55.238Z,98850.65
2019-03-06T20:34:21.596Z,98850.61
2019-03-06T20:36:48.252Z,98843.20
2019-03-06T20:39:14.707Z,98834.02
2019-03-06T20:41:41.242Z,98834.02
2019-03-06T20:44:07.496Z,98837.52
2019-03-06T20:46:33.848Z,98828.38
2019-03-06T20:49:00.011Z,98824.41
2019-03-06T20:51:26.463Z,98823.55
2019-03-06T20:53:52.876Z,98825.23
2019-03-06T20:56:19.601Z,98822.14
2019-03-06T20:58:45.962Z,98822.62
2019-03-06T21:01:12.630Z,98815.72
2019-03-06T21:03:39.010Z,98817.06
2019-03-06T21:06:05.316Z,98818.84
2019-03-06T21:08:31.674Z,98829.27
2019-03-06T21:10:58.018Z,98827.20
2019-03-06T21:13:24.502Z,98822.09
2019-03-06T21:15:50.975Z,98827.41
2019-03-06T21:18:18.420Z,98827.03
2019-03-06T21:20:44.691Z,98828.38
2019-03-06T21:23:11.203Z,98822.33
2019-03-06T21:25:37.552Z,98825.87
2019-03-06T21:28:03.956Z,98827.54
2019-03-06T21:30:32.151Z,98826.75
2019-03-06T21:32:58.483Z,98828.52
2019-03-06T21:35:24.850Z,98821.62
2019-03-06T21:37:51.308Z,98823.39
2019-03-06T21:40:17.819Z,98810.78
2019-03-06T21:42:44.522Z,98814.73
2019-03-06T21:45:11.987Z,98813.89
2019-03-06T21:47:38.302Z,98813.91
2019-03-06T21:50:15.428Z,98816.50
2019-03-06T21:52:41.756Z,98825.17
2019-03-06T21:55:10.390Z,98818.27
2019-03-06T21:57:36.847Z,98814.41
2019-03-06T22:00:06.837Z,98810.50
2019-03-06T22:02:34.437Z,98804.86
2019-03-06T22:05:00.705Z,98797.48
2019-03-06T22:07:27.129Z,98806.16
2019-03-06T22:09:53.273Z,98800.94
2019-03-06T22:12:19.502Z,98802.26
2019-03-06T22:14:45.636Z,98806.18
2019-03-06T22:17:12.110Z,98815.72
2019-03-06T22:19:38.571Z,98804.45
2019-03-06T22:22:04.808Z,98797.97
2019-03-06T22:24:31.235Z,98799.70
2019-03-06T22:26:57.839Z,98800.14
2019-03-06T22:29:24.122Z,98793.23
2019-03-06T22:31:50.532Z,98792.32
2019-03-06T22:34:16.883Z,98788.87
2019-03-06T22:36:42.997Z,98790.61
2019-03-06T22:39:09.539Z,98783.66
2019-03-06T22:41:36.049Z,98781.06
2019-03-06T22:44:02.383Z,98765.87
2019-03-06T22:46:28.702Z,98769.79
2019-03-06T22:48:54.828Z,98765.01
2019-03-06T22:51:21.182Z,98760.23
2019-03-06T22:53:47.289Z,98766.26
2019-03-06T22:56:13.708Z,98756.71
2019-03-06T22:58:39.835Z,98755.83
2019-03-06T23:01:15.581Z,98752.38
2019-03-06T23:03:43.820Z,98748.91
2019-03-06T23:06:10.113Z,98745.86
2019-03-06T23:08:36.824Z,98747.14
2019-03-06T23:11:03.637Z,98732.38
2019-03-06T23:13:32.497Z,98737.56
2019-03-06T23:15:59.045Z,98732.34
2019-03-06T23:18:25.339Z,98729.63
2019-03-06T23:20:51.689Z,98728.61
2019-03-06T23:23:19.250Z,98721.13
2019-03-06T23:25:46.992Z,98713.72
2019-03-06T23:28:14.802Z,98710.70
2019-03-06T23:30:41.623Z,98705.46
2019-03-06T23:33:08.182Z,98701.45
2019-03-06T23:35:38.802Z,98697.98
2019-03-06T23:38:07.212Z,98688.90
2019-03-06T23:40:33.596Z,98692.40
2019-03-06T23:42:59.807Z,98687.19
2019-03-06T23:45:25.952Z,98683.28
2019-03-06T23:47:52.172Z,98679.71
2019-03-06T23:50:18.565Z,98668.46
2019-03-06T23:53:05.811Z,98668.46
2019-03-06T23:55:32.333Z,98662.80
2019-03-06T23:57:58.563Z,98655.47
